createdAt,value
2023-05-09T00:00:15.956Z,15.30
2023-05-09T00:02:45.905Z,14.53
2023-05-09T00:05:15.538Z,15.83
2023-05-09T00:07:47.550Z,15.13
2023-05-09T00:10:17.376Z,14.53
2023-05-09T00:12:45.594Z,15.60
2023-05-09T00:15:15.271Z,15.37
2023-05-09T00:17:45.845Z,15.67
2023-05-09T00:20:14.811Z,15.67
2023-05-09T00:22:43.866Z,16.47
2023-05-09T00:25:14.027Z,16.27
2023-05-09T00:27:42.300Z,17.40
2023-05-09T00:30:11.809Z,17.90
2023-05-09T00:32:41.835Z,19.00
2023-05-09T00:35:10.511Z,18.07
2023-05-09T00:37:39.192Z,18.23
2023-05-09T00:40:10.664Z,18.13
2023-05-09T00:42:40.993Z,18.83
2023-05-09T00:45:14.111Z,19.00
2023-05-09T00:47:43.754Z,18.73
2023-05-09T00:50:13.872Z,17.57
2023-05-09T00:52:43.515Z,18.37
2023-05-09T00:55:12.817Z,18.53
2023-05-09T00:57:43.419Z,18.20
2023-05-09T01:00:13.932Z,18.80
2023-05-09T01:02:42.672Z,18.50
2023-05-09T01:05:11.018Z,18.13
2023-05-09T01:07:47.367Z,18.80
2023-05-09T01:10:23.297Z,18.37
2023-05-09T01:13:00.148Z,18.57
2023-05-09T01:15:36.853Z,18.03
2023-05-09T01:18:10.059Z,18.33
2023-05-09T01:20:41.222Z,17.90
2023-05-09T01:23:47.393Z,17.90
2023-05-09T01:26:22.133Z,18.60
2023-05-09T01:29:28.990Z,18.20
2023-05-09T01:32:00.006Z,17.70
2023-05-09T01:34:30.530Z,16.97
2023-05-09T01:37:05.039Z,17.93
2023-05-09T01:39:35.967Z,17.70
2023-05-09T01:42:08.617Z,18.03
2023-05-09T01:44:41.218Z,17.50
2023-05-09T01:47:11.268Z,17.80
2023-05-09T01:49:42.175Z,17.60
2023-05-09T01:52:12.774Z,17.83
2023-05-09T01:54:42.791Z,16.33
2023-05-09T01:57:13.002Z,17.53
2023-05-09T01:59:46.809Z,18.40
2023-05-09T02:02:20.586Z,17.47
2023-05-09T02:04:49.944Z,17.10
2023-05-09T02:07:21.708Z,18.43
2023-05-09T02:09:53.137Z,17.60
2023-05-09T02:12:21.501Z,17.47
2023-05-09T02:14:49.281Z,18.70
2023-05-09T02:17:19.207Z,17.70
2023-05-09T02:19:49.461Z,18.40
2023-05-09T02:22:17.703Z,17.80
2023-05-09T02:24:46.025Z,18.13
2023-05-09T02:27:15.625Z,18.37
2023-05-09T02:29:46.903Z,17.43
2023-05-09T02:32:22.146Z,17.20
2023-05-09T02:34:52.545Z,18.03
2023-05-09T02:37:22.671Z,18.03
2023-05-09T02:39:50.667Z,18.13
2023-05-09T02:42:25.131Z,18.13
2023-05-09T02:44:57.147Z,17.83
2023-05-09T02:47:28.832Z,19.53
2023-05-09T02:49:56.641Z,18.97
2023-05-09T02:52:25.048Z,18.83
2023-05-09T02:54:54.039Z,18.83
2023-05-09T02:57:24.893Z,17.97
2023-05-09T02:59:53.448Z,19.37
2023-05-09T03:02:21.330Z,18.93
2023-05-09T03:04:53.322Z,18.90
2023-05-09T03:07:21.407Z,18.00
2023-05-09T03:09:49.160Z,18.13
2023-05-09T03:12:22.425Z,18.50
2023-05-09T03:14:51.541Z,18.80
2023-05-09T03:17:22.755Z,17.83
2023-05-09T03:19:52.502Z,18.43
2023-05-09T03:22:20.248Z,17.93
2023-05-09T03:24:51.992Z,17.67
2023-05-09T03:27:22.410Z,17.07
2023-05-09T03:29:50.897Z,16.40
2023-05-09T03:32:26.772Z,16.60
2023-05-09T03:34:57.170Z,16.63
2023-05-09T03:37:27.038Z,16.87
2023-05-09T03:39:55.207Z,17.83
2023-05-09T03:42:22.959Z,17.63
2023-05-09T03:44:53.607Z,17.07
2023-05-09T03:47:22.188Z,17.73
2023-05-09T03:49:51.204Z,19.33
2023-05-09T03:52:21.479Z,18.23
2023-05-09T03:54:51.684Z,17.73
2023-05-09T03:57:20.100Z,16.97
2023-05-09T03:59:49.629Z,18.67
2023-05-09T04:02:22.726Z,17.37
2023-05-09T04:04:51.361Z,18.13
2023-05-09T04:07:22.876Z,17.80
2023-05-09T04:09:54.038Z,17.77
2023-05-09T04:12:22.816Z,17.37
2023-05-09T04:14:53.121Z,18.27
2023-05-09T04:17:21.948Z,17.93
2023-05-09T04:19:52.591Z,17.73
2023-05-09T04:22:22.297Z,17.80
2023-05-09T04:24:50.563Z,17.67
2023-05-09T04:27:18.373Z,18.47
2023-05-09T04:29:46.610Z,18.47
2023-05-09T04:32:14.914Z,18.40
2023-05-09T04:34:43.069Z,17.93
2023-05-09T04:37:11.087Z,18.17
2023-05-09T04:39:42.684Z,17.30
2023-05-09T04:42:11.797Z,17.03
2023-05-09T04:44:39.981Z,17.63
2023-05-09T04:47:09.398Z,18.50
2023-05-09T04:49:37.444Z,17.50
2023-05-09T04:52:08.221Z,17.77
2023-05-09T04:54:36.254Z,17.63
2023-05-09T04:57:17.336Z,16.63
2023-05-09T04:59:49.083Z,17.93
2023-05-09T05:02:17.162Z,17.23
2023-05-09T05:04:46.295Z,19.07
2023-05-09T05:07:22.285Z,18.60
2023-05-09T05:09:50.104Z,17.33
2023-05-09T05:12:20.138Z,18.60
2023-05-09T05:14:50.413Z,19.07
2023-05-09T05:17:18.488Z,17.47
2023-05-09T05:19:46.667Z,18.00
2023-05-09T05:22:15.626Z,18.13
2023-05-09T05:24:43.943Z,19.07
2023-05-09T05:27:14.546Z,18.40
2023-05-09T05:29:44.152Z,18.73
2023-05-09T05:32:13.855Z,19.33
2023-05-09T05:34:42.569Z,18.97
2023-05-09T05:37:10.783Z,18.50
2023-05-09T05:39:40.446Z,17.53
2023-05-09T05:42:08.332Z,19.53
2023-05-09T05:44:37.889Z,17.90
2023-05-09T05:47:08.110Z,18.87
2023-05-09T05:49:39.676Z,18.93
2023-05-09T05:52:08.980Z,18.47
2023-05-09T05:54:37.372Z,18.60
2023-05-09T05:57:08.883Z,17.67
2023-05-09T05:59:38.792Z,18.53
2023-05-09T06:02:09.790Z,16.57
2023-05-09T06:04:40.195Z,17.27
2023-05-09T06:07:10.467Z,18.63
2023-05-09T06:09:39.447Z,17.20
2023-05-09T06:12:07.500Z,17.13
2023-05-09T06:14:35.365Z,17.33
2023-05-09T06:17:04.543Z,18.60
2023-05-09T06:19:37.317Z,19.47
2023-05-09T06:22:06.058Z,16.93
2023-05-09T06:24:36.467Z,16.47
2023-05-09T06:27:05.006Z,27.37
2023-05-09T06:29:34.115Z,16.03
2023-05-09T06:32:07.962Z,16.70
2023-05-09T06:34:40.749Z,15.77
2023-05-09T06:37:09.155Z,15.90
2023-05-09T06:39:39.415Z,15.07
2023-05-09T06:42:12.081Z,17.13
2023-05-09T06:44:46.054Z,15.83
2023-05-09T06:47:14.998Z,16.60
2023-05-09T06:49:46.487Z,16.20
2023-05-09T06:52:16.340Z,16.03
2023-05-09T06:54:51.514Z,15.97
2023-05-09T06:57:20.797Z,15.23
2023-05-09T06:59:49.838Z,15.03
2023-05-09T07:02:20.821Z,14.80
2023-05-09T07:04:51.316Z,14.17
2023-05-09T07:07:19.478Z,14.43
2023-05-09T07:09:52.897Z,14.77
2023-05-09T07:12:25.492Z,14.03
2023-05-09T07:14:56.925Z,14.43
2023-05-09T07:17:25.829Z,13.97
2023-05-09T07:19:56.034Z,14.43
2023-05-09T07:22:28.767Z,28.73
2023-05-09T07:24:59.794Z,14.17
2023-05-09T07:27:29.502Z,14.77
2023-05-09T07:29:57.911Z,14.53
2023-05-09T07:32:28.949Z,13.70
2023-05-09T07:35:01.986Z,14.13
2023-05-09T07:37:29.808Z,14.33
2023-05-09T07:39:58.838Z,14.17
2023-05-09T07:42:30.330Z,12.90
2023-05-09T07:44:59.100Z,13.90
2023-05-09T07:47:27.119Z,14.17
2023-05-09T07:49:59.381Z,14.37
2023-05-09T07:52:27.939Z,13.33
2023-05-09T07:54:58.294Z,13.93
2023-05-09T07:57:28.461Z,14.00
2023-05-09T07:59:57.790Z,13.40
2023-05-09T08:02:28.860Z,13.20
2023-05-09T08:04:58.013Z,13.40
2023-05-09T08:07:30.545Z,12.80
2023-05-09T08:10:01.790Z,12.70
2023-05-09T08:12:31.410Z,12.63
2023-05-09T08:15:03.759Z,13.27
2023-05-09T08:17:34.878Z,13.40
2023-05-09T08:20:10.247Z,14.93
2023-05-09T08:22:42.658Z,14.00
2023-05-09T08:25:15.895Z,14.27
2023-05-09T08:27:44.979Z,13.50
2023-05-09T08:30:14.934Z,13.17
2023-05-09T08:32:42.982Z,12.67
2023-05-09T08:35:11.733Z,13.57
2023-05-09T08:37:41.273Z,12.67
2023-05-09T08:40:10.383Z,13.60
2023-05-09T08:42:38.893Z,13.27
2023-05-09T08:45:15.218Z,13.20
2023-05-09T08:47:43.847Z,13.37
2023-05-09T08:50:15.786Z,14.13
2023-05-09T08:52:45.794Z,13.83
2023-05-09T08:55:14.276Z,13.70
2023-05-09T08:57:45.388Z,13.60
2023-05-09T09:00:17.947Z,13.50
2023-05-09T09:02:48.172Z,13.03
2023-05-09T09:05:34.097Z,12.50
2023-05-09T09:08:12.662Z,12.30
2023-05-09T09:10:43.343Z,12.50
2023-05-09T09:13:14.251Z,13.83
2023-05-09T09:15:50.751Z,12.30
2023-05-09T09:18:25.452Z,12.43
2023-05-09T09:20:57.982Z,13.30
2023-05-09T09:23:31.614Z,12.77
2023-05-09T09:26:02.370Z,12.20
2023-05-09T09:28:33.012Z,12.70
2023-05-09T09:31:02.301Z,12.07
2023-05-09T09:33:31.097Z,12.50
2023-05-09T09:36:02.148Z,13.83
2023-05-09T09:38:41.143Z,13.37
2023-05-09T09:41:13.572Z,12.70
2023-05-09T09:43:48.147Z,13.13
2023-05-09T09:46:20.415Z,12.30
2023-05-09T09:48:53.251Z,11.17
2023-05-09T09:51:21.784Z,12.50
2023-05-09T09:53:52.075Z,11.63
2023-05-09T09:56:22.231Z,12.23
2023-05-09T09:58:51.068Z,12.10
2023-05-09T10:01:22.126Z,12.10
2023-05-09T10:03:50.210Z,15.03
2023-05-09T10:06:20.167Z,11.60
2023-05-09T10:08:49.103Z,11.47
2023-05-09T10:11:22.428Z,10.37
2023-05-09T10:13:52.763Z,11.07
2023-05-09T10:16:25.914Z,10.37
2023-05-09T10:19:08.164Z,11.00
2023-05-09T10:21:39.250Z,10.60
2023-05-09T10:24:11.378Z,10.23
2023-05-09T10:26:47.694Z,10.37
2023-05-09T10:29:27.613Z,11.37
2023-05-09T10:32:02.987Z,10.60
2023-05-09T10:34:37.553Z,10.27
2023-05-09T10:37:07.548Z,10.63
2023-05-09T10:39:37.355Z,10.33
2023-05-09T10:42:09.180Z,19.13
2023-05-09T10:44:39.185Z,20.50
2023-05-09T10:47:08.228Z,10.33
2023-05-09T10:49:37.583Z,10.83
2023-05-09T10:52:06.422Z,12.30
2023-05-09T10:54:39.286Z,11.10
2023-05-09T10:57:11.211Z,11.37
2023-05-09T10:59:43.114Z,11.23
2023-05-09T11:02:15.033Z,10.03
2023-05-09T11:04:44.634Z,12.87
2023-05-09T11:07:38.664Z,10.77
2023-05-09T11:10:14.806Z,11.63
2023-05-09T11:13:02.817Z,13.27
2023-05-09T11:15:34.829Z,12.93
2023-05-09T11:18:07.886Z,14.03
2023-05-09T11:20:38.914Z,15.37
2023-05-09T11:23:07.824Z,15.20
2023-05-09T11:25:36.098Z,15.80
2023-05-09T11:28:06.663Z,16.67
2023-05-09T11:30:41.129Z,17.17
2023-05-09T11:33:24.242Z,15.03
2023-05-09T11:36:17.313Z,14.47
2023-05-09T11:38:45.677Z,14.67
2023-05-09T11:41:13.954Z,14.10
2023-05-09T11:43:45.689Z,14.40
2023-05-09T11:46:17.949Z,13.53
2023-05-09T11:48:46.043Z,13.30
2023-05-09T11:51:19.009Z,13.23
2023-05-09T11:53:54.318Z,12.93
2023-05-09T11:56:23.974Z,12.40
2023-05-09T11:58:54.348Z,13.03
2023-05-09T12:01:25.381Z,11.93
2023-05-09T12:03:54.163Z,11.70
2023-05-09T12:06:22.867Z,12.30
2023-05-09T12:08:55.059Z,10.90
2023-05-09T12:11:24.136Z,10.90
2023-05-09T12:13:54.059Z,9.67
2023-05-09T12:16:25.225Z,9.10
2023-05-09T12:18:58.449Z,9.90
2023-05-09T12:21:28.366Z,10.80
2023-05-09T12:23:57.232Z,10.73
2023-05-09T12:26:28.402Z,9.07
2023-05-09T12:28:58.488Z,9.87
2023-05-09T12:31:28.140Z,8.20
2023-05-09T12:33:56.655Z,7.83
2023-05-09T12:36:24.943Z,9.07
2023-05-09T12:38:56.892Z,9.17
2023-05-09T12:43:59.479Z,8.30
2023-05-09T12:46:31.098Z,8.47
2023-05-09T12:48:59.129Z,8.13
2023-05-09T12:51:27.843Z,8.03
2023-05-09T12:54:18.510Z,6.50
2023-05-09T12:57:04.578Z,6.10
2023-05-09T13:02:23.153Z,6.10
2023-05-09T13:04:51.078Z,5.77
2023-05-09T13:07:19.750Z,6.30
2023-05-09T13:09:58.085Z,6.50
2023-05-09T13:12:28.645Z,9.60
2023-05-09T13:14:58.438Z,9.73
2023-05-09T13:17:26.447Z,8.98
2023-05-09T13:19:55.265Z,8.83
2023-05-09T13:22:23.729Z,9.00
2023-05-09T13:24:58.776Z,10.80
2023-05-09T13:27:28.015Z,8.47
2023-05-09T13:29:58.369Z,8.53
2023-05-09T13:32:27.085Z,8.23
2023-05-09T13:34:55.657Z,8.93
2023-05-09T13:37:26.483Z,9.27
2023-05-09T13:39:58.327Z,9.13
2023-05-09T13:42:29.279Z,8.60
2023-05-09T13:45:02.075Z,9.33
2023-05-09T13:47:30.595Z,9.00
2023-05-09T13:49:59.520Z,9.50
2023-05-09T13:52:27.474Z,9.60
2023-05-09T13:54:57.952Z,9.93
2023-05-09T13:57:29.473Z,9.80
2023-05-09T13:59:59.505Z,9.20
2023-05-09T14:02:29.229Z,9.70
2023-05-09T14:04:59.002Z,10.03
2023-05-09T14:07:28.171Z,10.47
2023-05-09T14:10:08.412Z,10.47
2023-05-09T14:12:44.549Z,10.67
2023-05-09T14:15:14.243Z,9.97
2023-05-09T14:17:48.273Z,10.27
2023-05-09T14:20:19.432Z,9.90
2023-05-09T14:22:53.318Z,10.57
2023-05-09T14:25:27.405Z,11.77
2023-05-09T14:28:04.713Z,12.03
2023-05-09T14:30:37.049Z,13.37
2023-05-09T14:33:05.942Z,13.20
2023-05-09T14:35:53.840Z,13.27
2023-05-09T14:38:22.802Z,13.63
2023-05-09T14:40:50.814Z,14.13
2023-05-09T14:43:22.700Z,13.23
2023-05-09T14:45:53.513Z,12.70
2023-05-09T14:48:21.992Z,12.67
2023-05-09T14:50:56.174Z,12.93
2023-05-09T14:53:25.606Z,13.07
2023-05-09T14:55:54.024Z,12.60
2023-05-09T14:58:30.796Z,11.83
2023-05-09T15:01:07.336Z,12.60
2023-05-09T15:03:39.532Z,12.70
2023-05-09T15:06:18.043Z,11.77
2023-05-09T15:08:53.345Z,11.47
2023-05-09T15:11:28.601Z,12.00
2023-05-09T15:13:59.255Z,10.80
2023-05-09T15:16:53.516Z,11.17
2023-05-09T15:19:23.629Z,11.53
2023-05-09T15:24:35.606Z,12.47
2023-05-09T15:27:13.625Z,11.57
2023-05-09T15:29:44.789Z,11.33
2023-05-09T15:32:15.201Z,12.20
2023-05-09T15:34:48.344Z,12.17
2023-05-09T15:37:23.335Z,13.33
2023-05-09T15:39:54.211Z,13.23
2023-05-09T15:42:26.117Z,14.57
2023-05-09T15:44:54.024Z,15.63
2023-05-09T15:47:24.030Z,16.63
2023-05-09T15:49:55.050Z,15.57
2023-05-09T15:52:30.627Z,17.90
2023-05-09T15:54:58.947Z,16.23
2023-05-09T15:57:27.793Z,15.67
2023-05-09T16:00:01.020Z,16.80
2023-05-09T16:02:31.234Z,17.50
2023-05-09T16:05:03.554Z,20.33
2023-05-09T16:07:35.360Z,22.07
2023-05-09T16:10:07.473Z,22.20
2023-05-09T16:12:35.652Z,20.77
2023-05-09T16:15:06.292Z,27.60
2023-05-09T16:17:36.207Z,27.70
2023-05-09T16:20:10.121Z,29.93
2023-05-09T16:22:38.012Z,23.83
2023-05-09T16:25:09.516Z,20.70
2023-05-09T16:27:39.944Z,19.90
2023-05-09T16:30:10.358Z,22.63
2023-05-09T16:32:39.675Z,20.63
2023-05-09T16:35:09.063Z,20.33
2023-05-09T16:37:38.492Z,20.80
2023-05-09T16:40:07.599Z,22.80
2023-05-09T16:42:36.041Z,22.53
2023-05-09T16:45:06.720Z,23.63
2023-05-09T16:47:35.417Z,20.67
2023-05-09T16:50:06.346Z,20.17
2023-05-09T16:52:36.014Z,19.10
2023-05-09T16:55:05.929Z,19.40
2023-05-09T16:57:36.958Z,19.17
2023-05-09T17:00:07.883Z,16.00
2023-05-09T17:02:37.080Z,22.00
2023-05-09T17:05:08.059Z,21.97
2023-05-09T17:07:36.737Z,24.93
2023-05-09T17:10:07.897Z,24.00
2023-05-09T17:12:39.192Z,23.83
2023-05-09T17:15:12.974Z,23.83
2023-05-09T17:17:41.379Z,22.30
2023-05-09T17:20:14.564Z,22.60
2023-05-09T17:22:49.278Z,22.03
2023-05-09T17:25:33.402Z,22.57
2023-05-09T17:28:02.544Z,23.07
2023-05-09T17:30:30.708Z,24.13
2023-05-09T17:32:58.766Z,25.03
2023-05-09T17:35:28.400Z,25.60
2023-05-09T17:37:56.500Z,25.60
2023-05-09T17:40:24.994Z,25.73
2023-05-09T17:42:53.335Z,25.77
2023-05-09T17:45:24.720Z,27.63
2023-05-09T17:47:52.581Z,22.83
2023-05-09T17:50:24.309Z,25.17
2023-05-09T17:52:58.767Z,24.23
2023-05-09T17:55:26.963Z,25.80
2023-05-09T17:57:54.995Z,27.37
2023-05-09T18:00:23.633Z,22.27
2023-05-09T18:02:52.324Z,17.87
2023-05-09T18:05:21.417Z,16.73
2023-05-09T18:08:03.265Z,19.07
2023-05-09T18:10:33.014Z,21.93
2023-05-09T18:13:03.345Z,16.17
2023-05-09T18:15:32.636Z,15.90
2023-05-09T18:18:02.722Z,19.30
2023-05-09T18:20:33.369Z,14.03
2023-05-09T18:23:02.743Z,21.20
2023-05-09T18:25:35.426Z,11.60
2023-05-09T18:28:03.575Z,10.23
2023-05-09T18:30:32.559Z,12.73
2023-05-09T18:33:02.694Z,15.57
2023-05-09T18:35:31.683Z,14.17
2023-05-09T18:38:02.107Z,14.90
2023-05-09T18:40:33.119Z,11.23
2023-05-09T18:43:03.803Z,8.53
2023-05-09T18:45:34.456Z,9.07
2023-05-09T18:48:07.213Z,9.23
2023-05-09T18:50:44.075Z,11.90
2023-05-09T18:53:12.949Z,13.20
2023-05-09T18:55:43.007Z,12.50
2023-05-09T18:58:12.626Z,10.47
2023-05-09T19:00:44.126Z,10.63
2023-05-09T19:03:13.200Z,10.97
2023-05-09T19:05:45.982Z,10.20
2023-05-09T19:08:15.255Z,10.10
2023-05-09T19:10:43.812Z,10.33
2023-05-09T19:13:16.291Z,9.87
2023-05-09T19:15:45.050Z,8.37
2023-05-09T19:18:16.695Z,9.47
2023-05-09T19:20:47.300Z,9.57
2023-05-09T19:23:18.262Z,8.50
2023-05-09T19:25:50.320Z,9.37
2023-05-09T19:28:23.024Z,9.70
2023-05-09T19:30:51.647Z,9.37
2023-05-09T19:33:22.350Z,9.97
2023-05-09T19:35:53.113Z,9.10
2023-05-09T19:38:21.186Z,8.90
2023-05-09T19:40:50.293Z,9.17
2023-05-09T19:43:18.153Z,9.40
2023-05-09T19:45:47.767Z,8.90
2023-05-09T19:48:20.476Z,8.97
2023-05-09T19:50:50.672Z,9.17
2023-05-09T19:53:18.495Z,9.53
2023-05-09T19:55:47.873Z,9.83
2023-05-09T19:58:17.879Z,9.30
2023-05-09T20:00:49.756Z,7.23
2023-05-09T20:03:19.577Z,7.13
2023-05-09T20:05:48.718Z,6.07
2023-05-09T20:08:16.796Z,6.70
2023-05-09T20:10:47.111Z,6.93
2023-05-09T20:13:15.599Z,7.40
2023-05-09T20:15:44.838Z,7.80
2023-05-09T20:18:16.577Z,7.30
2023-05-09T20:20:44.878Z,6.37
2023-05-09T20:23:16.358Z,6.90
2023-05-09T20:25:47.336Z,7.30
2023-05-09T20:28:19.945Z,6.60
2023-05-09T20:30:49.540Z,7.83
2023-05-09T20:33:19.812Z,8.50
2023-05-09T20:35:50.488Z,7.00
2023-05-09T20:38:18.410Z,8.07
2023-05-09T20:40:52.206Z,7.57
2023-05-09T20:43:20.981Z,7.67
2023-05-09T20:45:59.174Z,7.40
2023-05-09T20:48:37.679Z,8.47
2023-05-09T20:51:07.635Z,8.60
2023-05-09T20:53:39.226Z,8.40
2023-05-09T20:56:12.299Z,8.70
2023-05-09T20:58:40.138Z,8.20
2023-05-09T21:01:10.236Z,8.20
2023-05-09T21:03:42.249Z,8.43
2023-05-09T21:06:13.357Z,8.67
2023-05-09T21:08:42.973Z,8.97
2023-05-09T21:11:13.405Z,7.77
2023-05-09T21:13:50.654Z,7.17
2023-05-09T21:16:22.178Z,7.07
2023-05-09T21:18:54.445Z,6.87
2023-05-09T21:21:22.554Z,7.63
2023-05-09T21:23:51.701Z,8.33
2023-05-09T21:26:22.556Z,8.20
2023-05-09T21:28:53.200Z,6.67
2023-05-09T21:31:24.690Z,7.37
2023-05-09T21:33:57.990Z,7.93
2023-05-09T21:36:27.158Z,7.53
2023-05-09T21:38:55.829Z,7.37
2023-05-09T21:41:25.048Z,7.97
2023-05-09T21:43:53.289Z,7.07
2023-05-09T21:46:22.029Z,7.17
2023-05-09T21:48:52.135Z,7.57
2023-05-09T21:51:25.345Z,7.13
2023-05-09T21:53:54.762Z,6.63
2023-05-09T21:56:24.757Z,7.10
2023-05-09T21:58:55.268Z,7.47
2023-05-09T22:01:23.173Z,7.27
2023-05-09T22:03:51.847Z,7.27
2023-05-09T22:06:21.815Z,7.03
2023-05-09T22:08:54.508Z,7.33
2023-05-09T22:11:23.399Z,7.40
2023-05-09T22:13:53.476Z,6.97
2023-05-09T22:16:22.578Z,7.73
2023-05-09T22:18:56.987Z,7.77
2023-05-09T22:21:30.601Z,7.17
2023-05-09T22:24:00.664Z,6.83
2023-05-09T22:26:29.493Z,7.07
2023-05-09T22:28:59.350Z,7.10
2023-05-09T22:31:28.870Z,7.20
2023-05-09T22:33:57.745Z,7.07
2023-05-09T22:36:26.758Z,6.33
2023-05-09T22:38:55.729Z,6.70
2023-05-09T22:41:29.572Z,7.30
2023-05-09T22:43:59.010Z,7.03
2023-05-09T22:46:27.451Z,6.77
2023-05-09T22:48:57.689Z,7.03
2023-05-09T22:51:28.697Z,6.97
2023-05-09T22:53:57.794Z,7.30
2023-05-09T22:56:27.651Z,7.23
2023-05-09T22:59:01.512Z,8.00
2023-05-09T23:01:30.455Z,7.07
2023-05-09T23:03:58.747Z,7.53
2023-05-09T23:06:31.189Z,7.57
2023-05-09T23:09:00.976Z,7.97
2023-05-09T23:11:32.977Z,7.50
2023-05-09T23:14:06.654Z,6.87
2023-05-09T23:16:34.639Z,6.70
2023-05-09T23:19:09.661Z,6.97
2023-05-09T23:21:38.256Z,7.10
2023-05-09T23:24:14.019Z,7.27
2023-05-09T23:26:43.757Z,6.70
2023-05-09T23:29:13.147Z,6.53
2023-05-09T23:31:42.338Z,7.40
2023-05-09T23:34:12.514Z,6.83
2023-05-09T23:36:48.566Z,6.97
2023-05-09T23:39:18.460Z,6.53
2023-05-09T23:41:52.354Z,6.70
2023-05-09T23:44:22.749Z,6.77
2023-05-09T23:47:00.589Z,6.00
2023-05-09T23:49:34.780Z,6.70
2023-05-09T23:52:04.423Z,6.23
2023-05-09T23:54:33.129Z,1.80
2023-05-09T23:57:04.785Z,1.87
2023-05-09T23:59:33.194Z,1.10
